Time;durP1;ratioP1;P1;durP2;ratioP2;P2;SDS_P1;SDS_P2;PMS_P1;PMS_P2;Temp;Humidity;BMP_temperature;BMP_pressure;BME280_temperature;BME280_humidity;BME280_pressure;Samples;Min_cycle;Max_cycle;Signal;HPM_P1;HPM_P2
2020/12/08 00:02:03;;;;;;;12.47;9.27;;;;;;;;;;5089181;28;20477;-56
2020/12/08 00:04:28;;;;;;;12.23;9.00;;;;;;;;;;5086734;28;20020;-56
2020/12/08 00:06:53;;;;;;;11.57;8.30;;;;;;;;;;5089028;28;20016;-56
2020/12/08 00:09:19;;;;;;;12.60;9.70;;;;;;;;;;5079631;28;20021;-56
2020/12/08 00:11:45;;;;;;;12.53;9.50;;;;;;;;;;5090472;28;20020;-56
2020/12/08 00:14:11;;;;;;;11.17;8.90;;;;;;;;;;5088242;28;20034;-57
2020/12/08 00:16:38;;;;;;;12.90;9.10;;;;;;;;;;5088977;28;20111;-55
2020/12/08 00:19:05;;;;;;;14.37;9.53;;;;;;;;;;5081877;28;20790;-57
2020/12/08 00:21:30;;;;;;;11.07;8.73;;;;;;;;;;5086251;28;20101;-55
2020/12/08 00:23:55;;;;;;;9.97;7.97;;;;;;;;;;5084886;28;20067;-55
2020/12/08 00:26:21;;;;;;;14.23;8.67;;;;;;;;;;5089779;28;20047;-54
2020/12/08 00:28:46;;;;;;;11.63;8.80;;;;;;;;;;5086704;28;20110;-58
2020/12/08 00:31:11;;;;;;;13.30;8.67;;;;;;;;;;5091134;28;20517;-55
2020/12/08 00:33:36;;;;;;;12.83;9.20;;;;;;;;;;5090929;28;20067;-57
2020/12/08 00:36:02;;;;;;;11.67;8.63;;;;;;;;;;5082186;28;20403;-55
2020/12/08 00:38:28;;;;;;;12.43;9.60;;;;;;;;;;5082445;28;20021;-54
2020/12/08 00:40:53;;;;;;;12.17;8.70;;;;;;;;;;5088458;28;20038;-54
2020/12/08 00:43:18;;;;;;;11.80;8.73;;;;;;;;;;5086465;28;20019;-56
2020/12/08 00:45:44;;;;;;;13.63;8.97;;;;;;;;;;5088623;28;20023;-55
2020/12/08 00:48:10;;;;;;;10.53;7.67;;;;;;;;;;5085854;28;20084;-55
2020/12/08 00:50:35;;;;;;;12.87;9.13;;;;;;;;;;5082068;28;20437;-57
2020/12/08 00:53:00;;;;;;;12.87;9.07;;;;;;;;;;5088512;28;20024;-56
2020/12/08 00:55:25;;;;;;;13.10;9.80;;;;;;;;;;5090809;28;20408;-56
2020/12/08 00:57:51;;;;;;;11.77;9.03;;;;;;;;;;5087081;28;20020;-55
2020/12/08 01:00:16;;;;;;;12.27;9.53;;;;;;;;;;5084328;28;20025;-56
2020/12/08 01:02:41;;;;;;;13.77;9.53;;;;;;;;;;5089261;28;20259;-53
2020/12/08 01:05:11;;;;;;;12.53;9.33;;;;;;;;;;5090662;28;20024;-55
2020/12/08 01:07:36;;;;;;;13.53;9.53;;;;;;;;;;5083453;28;20043;-55
2020/12/08 01:10:02;;;;;;;12.33;8.97;;;;;;;;;;5084887;28;20499;-56
2020/12/08 01:12:27;;;;;;;13.03;9.07;;;;;;;;;;5082711;28;20099;-57
2020/12/08 01:14:53;;;;;;;13.57;9.80;;;;;;;;;;5085529;28;20016;-55
2020/12/08 01:17:18;;;;;;;13.47;9.50;;;;;;;;;;5081929;28;20463;-53
2020/12/08 01:19:43;;;;;;;11.97;8.90;;;;;;;;;;5081973;28;20047;-54
2020/12/08 01:22:09;;;;;;;13.97;9.97;;;;;;;;;;5086336;28;20040;-56
2020/12/08 01:24:34;;;;;;;13.40;9.70;;;;;;;;;;5089238;28;20436;-57
2020/12/08 01:26:59;;;;;;;12.60;10.10;;;;;;;;;;5090383;28;20442;-53
2020/12/08 01:29:25;;;;;;;15.13;10.23;;;;;;;;;;5083599;28;20516;-54
2020/12/08 01:31:50;;;;;;;13.80;10.10;;;;;;;;;;5088464;28;20429;-54
2020/12/08 01:34:15;;;;;;;13.10;9.63;;;;;;;;;;5084309;28;20066;-53
2020/12/08 01:36:40;;;;;;;14.43;9.23;;;;;;;;;;5083957;28;20017;-56
2020/12/08 01:39:06;;;;;;;12.93;8.97;;;;;;;;;;5088883;28;20020;-55
2020/12/08 01:41:31;;;;;;;13.00;8.80;;;;;;;;;;5094784;28;20129;-56
2020/12/08 01:43:56;;;;;;;12.87;9.30;;;;;;;;;;5091882;28;20028;-57
2020/12/08 01:46:23;;;;;;;11.47;8.90;;;;;;;;;;5091230;28;20032;-55
2020/12/08 01:48:48;;;;;;;13.97;9.43;;;;;;;;;;5077846;28;20028;-52
2020/12/08 01:51:15;;;;;;;14.03;10.40;;;;;;;;;;5085075;28;20022;-53
2020/12/08 01:53:41;;;;;;;11.73;9.20;;;;;;;;;;5092919;28;20024;-56
2020/12/08 01:56:08;;;;;;;13.90;9.83;;;;;;;;;;5090581;28;20016;-52
2020/12/08 01:58:33;;;;;;;14.40;9.17;;;;;;;;;;5090337;28;20032;-54
2020/12/08 02:00:58;;;;;;;12.50;8.93;;;;;;;;;;5089110;28;20031;-54
2020/12/08 02:03:26;;;;;;;16.17;10.17;;;;;;;;;;5093762;28;20436;-56
2020/12/08 02:05:51;;;;;;;16.23;9.87;;;;;;;;;;5093979;28;20043;-55
2020/12/08 02:08:25;;;;;;;12.73;9.23;;;;;;;;;;5088367;28;20437;-57
2020/12/08 02:10:50;;;;;;;14.13;9.63;;;;;;;;;;5087022;28;20032;-55
2020/12/08 02:13:17;;;;;;;15.80;10.20;;;;;;;;;;5090954;28;20394;-55
2020/12/08 02:15:42;;;;;;;14.20;10.47;;;;;;;;;;5091924;28;20509;-55
2020/12/08 02:18:07;;;;;;;14.60;10.53;;;;;;;;;;5090885;28;20096;-56
2020/12/08 02:20:32;;;;;;;16.17;10.77;;;;;;;;;;5090495;28;20362;-54
2020/12/08 02:22:58;;;;;;;17.83;11.17;;;;;;;;;;5092927;28;20067;-57
2020/12/08 02:25:23;;;;;;;16.93;11.10;;;;;;;;;;5093412;28;20046;-53
2020/12/08 02:27:49;;;;;;;15.73;10.73;;;;;;;;;;5082769;28;20038;-56
2020/12/08 02:30:14;;;;;;;17.97;11.90;;;;;;;;;;5089336;28;20490;-55
2020/12/08 02:32:40;;;;;;;21.40;12.47;;;;;;;;;;5087671;28;20020;-56
2020/12/08 02:35:06;;;;;;;20.10;12.40;;;;;;;;;;5090805;28;20081;-55
2020/12/08 02:37:31;;;;;;;19.63;13.17;;;;;;;;;;5091169;28;20110;-56
2020/12/08 02:39:57;;;;;;;18.23;12.17;;;;;;;;;;5088489;28;20024;-56
2020/12/08 02:42:22;;;;;;;20.27;12.63;;;;;;;;;;5090319;28;20028;-56
2020/12/08 02:44:47;;;;;;;20.23;12.77;;;;;;;;;;5083745;28;20062;-56
2020/12/08 02:47:12;;;;;;;20.30;12.47;;;;;;;;;;5088513;28;20066;-52
2020/12/08 02:49:38;;;;;;;19.03;11.70;;;;;;;;;;5089505;28;20470;-55
2020/12/08 02:52:03;;;;;;;17.33;12.17;;;;;;;;;;5088590;28;20566;-56
2020/12/08 02:54:28;;;;;;;19.13;13.13;;;;;;;;;;5088954;28;20486;-57
2020/12/08 02:56:53;;;;;;;20.37;13.27;;;;;;;;;;5088459;28;20035;-55
2020/12/08 02:59:19;;;;;;;22.97;13.97;;;;;;;;;;5084945;28;20027;-57
2020/12/08 03:01:44;;;;;;;24.83;15.07;;;;;;;;;;5087067;28;20032;-54
2020/12/08 03:04:09;;;;;;;21.13;13.40;;;;;;;;;;5086458;28;20116;-56
2020/12/08 03:06:40;;;;;;;23.43;14.13;;;;;;;;;;5080932;28;20035;-57
2020/12/08 03:09:05;;;;;;;20.17;12.87;;;;;;;;;;5083403;28;20102;-53
2020/12/08 03:11:31;;;;;;;20.10;12.83;;;;;;;;;;5086987;28;20142;-56
2020/12/08 03:13:56;;;;;;;24.17;13.83;;;;;;;;;;5092371;28;20153;-55
2020/12/08 03:16:21;;;;;;;21.30;13.00;;;;;;;;;;5091351;28;20016;-55
2020/12/08 03:18:47;;;;;;;22.30;13.63;;;;;;;;;;5085618;28;20024;-55
2020/12/08 03:21:12;;;;;;;18.73;12.97;;;;;;;;;;5089669;28;20546;-55
2020/12/08 03:23:37;;;;;;;18.23;12.43;;;;;;;;;;5087495;28;20044;-54
2020/12/08 03:26:02;;;;;;;19.93;12.80;;;;;;;;;;5081045;28;20031;-53
2020/12/08 03:28:27;;;;;;;19.77;12.50;;;;;;;;;;5087341;28;20262;-56
2020/12/08 03:30:53;;;;;;;17.97;12.33;;;;;;;;;;5085224;28;20535;-53
2020/12/08 03:33:18;;;;;;;18.17;11.83;;;;;;;;;;5085145;28;20024;-55
2020/12/08 03:35:43;;;;;;;19.77;12.87;;;;;;;;;;5092023;28;20019;-57
2020/12/08 03:38:08;;;;;;;18.37;11.43;;;;;;;;;;5089828;28;20020;-56
2020/12/08 03:40:34;;;;;;;19.53;12.50;;;;;;;;;;5080981;28;20028;-55
2020/12/08 03:42:59;;;;;;;18.50;12.57;;;;;;;;;;5084811;28;20031;-55
2020/12/08 03:45:24;;;;;;;18.03;12.13;;;;;;;;;;5089187;28;20497;-56
2020/12/08 03:47:49;;;;;;;18.10;13.13;;;;;;;;;;5081197;28;20476;-56
2020/12/08 03:50:15;;;;;;;15.77;11.60;;;;;;;;;;5082435;28;20016;-56
2020/12/08 03:52:40;;;;;;;17.17;11.57;;;;;;;;;;5082786;28;20031;-56
2020/12/08 03:55:05;;;;;;;16.77;12.07;;;;;;;;;;5087413;28;20073;-55
2020/12/08 03:57:30;;;;;;;17.33;12.40;;;;;;;;;;5090587;28;20060;-54
2020/12/08 03:59:56;;;;;;;17.47;11.67;;;;;;;;;;5082458;28;20023;-55
2020/12/08 04:02:21;;;;;;;16.60;11.67;;;;;;;;;;5084014;28;20078;-56
2020/12/08 04:04:49;;;;;;;19.27;11.40;;;;;;;;;;5086012;28;20076;-53
2020/12/08 04:07:15;;;;;;;16.13;11.17;;;;;;;;;;5089411;28;20117;-56
2020/12/08 04:09:40;;;;;;;16.40;10.83;;;;;;;;;;5086665;28;20119;-56
2020/12/08 04:12:05;;;;;;;17.13;11.80;;;;;;;;;;5086390;28;20043;-55
2020/12/08 04:14:30;;;;;;;16.77;11.17;;;;;;;;;;5091335;28;20008;-55
2020/12/08 04:16:56;;;;;;;17.17;11.60;;;;;;;;;;5090947;28;20020;-57
2020/12/08 04:19:21;;;;;;;16.77;10.53;;;;;;;;;;5086032;28;20509;-55
2020/12/08 04:21:46;;;;;;;19.67;12.30;;;;;;;;;;5084799;28;20070;-55
2020/12/08 04:24:12;;;;;;;18.50;13.07;;;;;;;;;;5088527;28;20031;-54
2020/12/08 04:26:37;;;;;;;19.27;12.73;;;;;;;;;;5081557;28;20028;-56
2020/12/08 04:29:02;;;;;;;19.60;12.57;;;;;;;;;;5082537;28;20027;-56
2020/12/08 04:31:27;;;;;;;23.20;14.13;;;;;;;;;;5082717;28;20103;-54
2020/12/08 04:33:53;;;;;;;20.47;13.20;;;;;;;;;;5086288;28;20016;-54
2020/12/08 04:36:19;;;;;;;21.40;13.20;;;;;;;;;;5076200;28;20617;-55
2020/12/08 04:38:45;;;;;;;19.90;13.77;;;;;;;;;;5082964;28;20020;-53
2020/12/08 04:41:12;;;;;;;18.40;12.33;;;;;;;;;;5089976;28;20492;-54
2020/12/08 04:43:40;;;;;;;18.20;11.73;;;;;;;;;;5089295;28;20034;-57
2020/12/08 04:46:06;;;;;;;18.47;12.30;;;;;;;;;;5090584;28;20024;-54
2020/12/08 04:48:31;;;;;;;18.10;11.57;;;;;;;;;;5083520;28;20265;-54
2020/12/08 04:50:57;;;;;;;17.00;10.77;;;;;;;;;;5090766;28;20012;-52
2020/12/08 04:53:22;;;;;;;18.90;12.40;;;;;;;;;;5087632;28;20073;-53
2020/12/08 04:55:49;;;;;;;20.90;14.87;;;;;;;;;;5087876;28;20024;-57
2020/12/08 04:58:15;;;;;;;18.00;12.37;;;;;;;;;;5085683;28;20012;-55
2020/12/08 05:00:41;;;;;;;17.77;11.97;;;;;;;;;;5086428;28;20032;-53
2020/12/08 05:03:06;;;;;;;19.13;12.87;;;;;;;;;;5087293;28;20028;-54
2020/12/08 05:05:37;;;;;;;20.27;13.70;;;;;;;;;;5083125;28;20016;-56
2020/12/08 05:08:08;;;;;;;22.17;13.83;;;;;;;;;;5082290;28;20027;-55
2020/12/08 05:10:33;;;;;;;22.47;14.47;;;;;;;;;;5093247;28;20071;-50
2020/12/08 05:12:58;;;;;;;21.70;14.07;;;;;;;;;;5089150;28;20051;-52
2020/12/08 05:15:23;;;;;;;23.17;14.43;;;;;;;;;;5090023;28;20028;-56
2020/12/08 05:17:48;;;;;;;19.97;12.87;;;;;;;;;;5090392;28;20016;-46
2020/12/08 05:20:17;;;;;;;21.70;13.60;;;;;;;;;;5083079;28;20019;-53
2020/12/08 05:22:53;;;;;;;23.27;15.17;;;;;;;;;;5092779;28;20549;-55
2020/12/08 05:25:19;;;;;;;22.33;16.40;;;;;;;;;;5095411;28;20020;-55
2020/12/08 05:27:45;;;;;;;27.07;18.57;;;;;;;;;;5089758;28;20024;-55
2020/12/08 05:30:10;;;;;;;25.70;16.13;;;;;;;;;;5086675;28;20035;-57
2020/12/08 05:32:36;;;;;;;25.90;16.37;;;;;;;;;;5089108;28;20024;-55
2020/12/08 05:35:03;;;;;;;28.93;17.40;;;;;;;;;;5092587;28;20024;-53
2020/12/08 05:37:33;;;;;;;28.23;17.50;;;;;;;;;;5092696;28;20031;-55
2020/12/08 05:40:00;;;;;;;27.80;16.93;;;;;;;;;;5078968;28;20025;-54
2020/12/08 05:42:26;;;;;;;26.90;16.63;;;;;;;;;;5086297;28;20051;-55
2020/12/08 05:44:52;;;;;;;26.77;16.27;;;;;;;;;;5091989;28;20063;-51
2020/12/08 05:47:18;;;;;;;22.07;14.47;;;;;;;;;;5082924;28;20043;-55
2020/12/08 05:49:43;;;;;;;23.57;14.27;;;;;;;;;;5081308;28;20024;-54
2020/12/08 05:52:08;;;;;;;24.23;15.70;;;;;;;;;;5081077;28;20013;-54
2020/12/08 05:54:34;;;;;;;21.20;15.10;;;;;;;;;;5092596;28;20040;-56
2020/12/08 05:57:11;;;;;;;22.47;15.97;;;;;;;;;;5090785;28;20441;-53
2020/12/08 05:59:37;;;;;;;22.63;13.80;;;;;;;;;;5087222;28;20030;-57
2020/12/08 06:02:02;;;;;;;21.87;14.30;;;;;;;;;;5085785;28;20035;-56
2020/12/08 06:04:38;;;;;;;29.53;15.70;;;;;;;;;;5093904;28;20016;-55
2020/12/08 06:07:03;;;;;;;25.63;16.70;;;;;;;;;;5089050;28;20019;-56
2020/12/08 06:09:33;;;;;;;28.30;16.40;;;;;;;;;;5088172;28;20111;-56
2020/12/08 06:11:58;;;;;;;28.03;16.90;;;;;;;;;;5086336;28;20021;-53
2020/12/08 06:14:29;;;;;;;25.27;15.73;;;;;;;;;;5086146;28;20542;-54
2020/12/08 06:16:59;;;;;;;22.83;14.77;;;;;;;;;;5086190;28;20016;-54
2020/12/08 06:19:24;;;;;;;23.40;14.57;;;;;;;;;;5080286;28;20036;-55
2020/12/08 06:21:49;;;;;;;23.37;14.30;;;;;;;;;;5085500;28;20024;-55
2020/12/08 06:24:14;;;;;;;28.37;18.47;;;;;;;;;;5092840;28;20016;-56
2020/12/08 06:26:40;;;;;;;33.30;18.37;;;;;;;;;;5089056;28;20054;-52
2020/12/08 06:29:07;;;;;;;26.47;15.97;;;;;;;;;;5087004;28;20425;-53
2020/12/08 06:31:42;;;;;;;23.90;14.47;;;;;;;;;;5087440;28;20409;-54
2020/12/08 06:34:08;;;;;;;24.10;14.38;;;;;;;;;;5088832;28;20017;-56
2020/12/08 06:36:33;;;;;;;26.00;15.40;;;;;;;;;;5089673;28;20031;-55
2020/12/08 06:39:03;;;;;;;26.70;16.20;;;;;;;;;;5087085;28;20039;-52
2020/12/08 06:41:33;;;;;;;28.93;15.87;;;;;;;;;;5082512;28;20031;-53
2020/12/08 06:43:59;;;;;;;23.57;14.70;;;;;;;;;;5084408;28;20095;-54
2020/12/08 06:46:25;;;;;;;26.13;14.73;;;;;;;;;;5080490;28;20222;-52
2020/12/08 06:49:08;;;;;;;26.23;14.73;;;;;;;;;;5081386;28;20040;-55
2020/12/08 06:51:34;;;;;;;25.53;14.57;;;;;;;;;;5092665;28;20023;-54
2020/12/08 06:54:10;;;;;;;26.07;15.37;;;;;;;;;;5085059;28;20016;-55
2020/12/08 06:56:35;;;;;;;26.80;15.50;;;;;;;;;;5083900;28;20074;-54
2020/12/08 06:59:00;;;;;;;27.83;15.73;;;;;;;;;;5087881;28;20024;-56
2020/12/08 07:01:26;;;;;;;27.90;15.93;;;;;;;;;;5084351;28;20052;-57
2020/12/08 07:03:52;;;;;;;29.67;16.10;;;;;;;;;;5092519;28;20043;-54
2020/12/08 07:06:18;;;;;;;29.10;16.13;;;;;;;;;;5090486;28;20047;-56
2020/12/08 07:08:47;;;;;;;30.60;16.10;;;;;;;;;;5080321;28;20472;-52
2020/12/08 07:11:23;;;;;;;30.17;16.17;;;;;;;;;;5090968;28;20076;-56
2020/12/08 07:13:58;;;;;;;29.63;16.90;;;;;;;;;;5087877;28;20054;-57
2020/12/08 07:16:25;;;;;;;33.03;17.17;;;;;;;;;;5095286;28;20080;-56
2020/12/08 07:18:50;;;;;;;25.90;14.53;;;;;;;;;;5082615;28;20024;-56
2020/12/08 07:21:17;;;;;;;23.37;14.30;;;;;;;;;;5081925;28;20077;-55
2020/12/08 07:23:43;;;;;;;28.07;15.23;;;;;;;;;;5084537;28;20110;-56
2020/12/08 07:26:09;;;;;;;26.13;16.47;;;;;;;;;;5090779;28;20138;-56
2020/12/08 07:28:35;;;;;;;26.37;15.73;;;;;;;;;;5086069;28;20337;-54
2020/12/08 07:31:00;;;;;;;28.20;16.17;;;;;;;;;;5085555;28;20027;-56
2020/12/08 07:33:29;;;;;;;31.17;16.80;;;;;;;;;;5087507;28;20073;-55
2020/12/08 07:35:55;;;;;;;33.47;18.17;;;;;;;;;;5082407;28;21339;-54
2020/12/08 07:38:20;;;;;;;29.43;18.63;;;;;;;;;;5081256;28;20039;-55
2020/12/08 07:40:45;;;;;;;34.80;19.27;;;;;;;;;;5081391;28;20031;-56
2020/12/08 07:43:11;;;;;;;31.53;18.77;;;;;;;;;;5086349;28;20016;-56
2020/12/08 07:45:43;;;;;;;36.43;19.60;;;;;;;;;;5081840;28;20032;-55
2020/12/08 07:48:17;;;;;;;30.13;17.93;;;;;;;;;;5082643;28;20060;-55
2020/12/08 07:50:42;;;;;;;45.80;25.00;;;;;;;;;;5084832;28;20115;-52
2020/12/08 07:53:08;;;;;;;40.63;22.30;;;;;;;;;;5087314;28;20155;-56
2020/12/08 07:55:38;;;;;;;35.90;20.87;;;;;;;;;;5082678;28;20032;-55
2020/12/08 07:58:03;;;;;;;37.43;21.73;;;;;;;;;;5072473;28;20016;-54
2020/12/08 08:00:28;;;;;;;38.73;21.10;;;;;;;;;;5084991;28;20359;-54
2020/12/08 08:02:54;;;;;;;28.50;18.50;;;;;;;;;;5072411;28;20024;-54
2020/12/08 08:05:19;;;;;;;32.67;17.20;;;;;;;;;;5086125;28;20028;-56
2020/12/08 08:07:44;;;;;;;29.03;17.10;;;;;;;;;;5081571;28;20028;-56
2020/12/08 08:10:10;;;;;;;32.57;18.73;;;;;;;;;;5088475;28;20035;-56
2020/12/08 08:12:36;;;;;;;29.47;18.10;;;;;;;;;;5092130;28;20399;-55
2020/12/08 08:15:02;;;;;;;31.90;18.43;;;;;;;;;;5088106;28;20020;-57
2020/12/08 08:17:28;;;;;;;26.53;17.50;;;;;;;;;;5077578;28;20536;-57
2020/12/08 08:19:53;;;;;;;28.63;17.43;;;;;;;;;;5069496;28;20048;-54
2020/12/08 08:22:18;;;;;;;31.60;16.47;;;;;;;;;;5076527;28;20526;-55
2020/12/08 08:24:44;;;;;;;28.53;16.53;;;;;;;;;;5075249;28;20029;-56
2020/12/08 08:27:09;;;;;;;30.33;17.67;;;;;;;;;;5084056;28;20020;-56
2020/12/08 08:29:35;;;;;;;31.17;17.23;;;;;;;;;;5087351;28;20020;-57
2020/12/08 08:32:00;;;;;;;22.13;13.53;;;;;;;;;;5077001;28;20046;-56
2020/12/08 08:34:25;;;;;;;22.87;14.77;;;;;;;;;;5071056;28;20467;-53
2020/12/08 08:36:51;;;;;;;22.27;15.03;;;;;;;;;;5073228;28;20021;-55
2020/12/08 08:39:17;;;;;;;28.60;15.20;;;;;;;;;;5073986;28;20497;-55
2020/12/08 08:41:42;;;;;;;25.47;14.67;;;;;;;;;;5085903;28;20062;-53
2020/12/08 08:44:08;;;;;;;24.67;15.67;;;;;;;;;;5085104;28;20455;-57
2020/12/08 08:46:33;;;;;;;27.67;17.17;;;;;;;;;;5091258;28;20184;-55
2020/12/08 08:48:59;;;;;;;24.83;16.40;;;;;;;;;;5084201;28;20028;-55
2020/12/08 08:51:24;;;;;;;25.63;17.07;;;;;;;;;;5076778;28;20104;-56
2020/12/08 08:53:50;;;;;;;27.13;17.20;;;;;;;;;;5074689;28;20029;-54
2020/12/08 08:56:17;;;;;;;23.13;15.13;;;;;;;;;;5074666;28;20058;-55
2020/12/08 08:58:43;;;;;;;23.03;15.87;;;;;;;;;;5067826;28;20514;-55
2020/12/08 09:01:08;;;;;;;22.17;15.83;;;;;;;;;;5076561;28;20099;-54
2020/12/08 09:03:34;;;;;;;20.40;13.73;;;;;;;;;;5071497;28;20036;-55
2020/12/08 09:05:59;;;;;;;23.23;15.70;;;;;;;;;;5074220;28;20025;-58
2020/12/08 09:08:24;;;;;;;20.90;14.90;;;;;;;;;;5080304;28;20017;-57
2020/12/08 09:10:50;;;;;;;21.20;14.63;;;;;;;;;;5083767;28;20024;-55
2020/12/08 09:13:16;;;;;;;19.50;13.60;;;;;;;;;;5088728;28;20382;-54
2020/12/08 09:15:42;;;;;;;18.83;14.50;;;;;;;;;;5083868;28;20230;-53
2020/12/08 09:18:08;;;;;;;18.80;13.40;;;;;;;;;;5084983;28;20095;-55
2020/12/08 09:20:33;;;;;;;19.40;14.67;;;;;;;;;;5088839;28;20036;-56
2020/12/08 09:22:59;;;;;;;18.13;14.53;;;;;;;;;;5087229;28;20101;-57
2020/12/08 09:25:27;;;;;;;22.30;14.63;;;;;;;;;;5090408;28;20020;-56
2020/12/08 09:27:53;;;;;;;19.23;14.77;;;;;;;;;;5083392;28;20022;-52
2020/12/08 09:30:18;;;;;;;19.53;14.40;;;;;;;;;;5069266;28;20450;-55
2020/12/08 09:32:44;;;;;;;21.33;17.10;;;;;;;;;;5081632;28;20525;-57
2020/12/08 09:35:09;;;;;;;17.77;15.57;;;;;;;;;;5083038;28;20481;-54
2020/12/08 09:37:34;;;;;;;20.50;15.37;;;;;;;;;;5073904;28;20025;-56
2020/12/08 09:40:00;;;;;;;17.87;13.97;;;;;;;;;;5050606;28;20029;-52
2020/12/08 09:42:25;;;;;;;17.00;12.97;;;;;;;;;;5073767;28;20162;-55
2020/12/08 09:44:50;;;;;;;16.17;12.55;;;;;;;;;;5087959;28;20088;-54
2020/12/08 09:47:16;;;;;;;14.57;11.77;;;;;;;;;;5074832;28;20020;-52
2020/12/08 09:49:43;;;;;;;14.45;11.98;;;;;;;;;;5079297;28;20162;-56
2020/12/08 09:52:09;;;;;;;17.73;11.80;;;;;;;;;;5088982;28;20028;-53
2020/12/08 09:54:35;;;;;;;14.15;11.93;;;;;;;;;;5077208;28;20085;-52
2020/12/08 09:57:00;;;;;;;13.68;10.20;;;;;;;;;;5093820;28;20020;-54
2020/12/08 09:59:26;;;;;;;13.40;11.65;;;;;;;;;;5083239;28;20021;-56
2020/12/08 10:01:52;;;;;;;12.55;11.25;;;;;;;;;;5082313;28;20038;-56
2020/12/08 10:04:17;;;;;;;17.73;16.13;;;;;;;;;;5089351;28;20031;-57
2020/12/08 10:06:42;;;;;;;11.80;10.30;;;;;;;;;;5090635;28;20042;-55
2020/12/08 10:09:08;;;;;;;9.77;7.85;;;;;;;;;;5081178;28;20025;-54
2020/12/08 10:11:33;;;;;;;9.60;8.68;;;;;;;;;;5089632;28;20382;-53
2020/12/08 10:13:59;;;;;;;11.65;9.70;;;;;;;;;;5091535;28;20097;-56
2020/12/08 10:16:25;;;;;;;8.68;7.78;;;;;;;;;;5089922;28;20016;-57
2020/12/08 10:18:51;;;;;;;8.15;5.22;;;;;;;;;;5084527;28;20023;-54
2020/12/08 10:21:19;;;;;;;9.25;8.00;;;;;;;;;;5088935;28;20038;-56
2020/12/08 10:23:44;;;;;;;8.60;7.80;;;;;;;;;;5091453;28;20072;-55
2020/12/08 10:26:10;;;;;;;9.63;8.73;;;;;;;;;;5088894;28;20463;-57
2020/12/08 10:28:36;;;;;;;10.00;8.77;;;;;;;;;;5080948;28;20031;-55
2020/12/08 10:31:01;;;;;;;9.70;8.80;;;;;;;;;;5090917;28;20455;-53
2020/12/08 10:33:27;;;;;;;8.90;8.10;;;;;;;;;;5082258;28;20019;-54
2020/12/08 10:35:52;;;;;;;9.70;8.60;;;;;;;;;;5086289;28;20027;-49
2020/12/08 10:38:18;;;;;;;8.63;7.72;;;;;;;;;;5082682;28;20024;-56
2020/12/08 10:40:43;;;;;;;10.20;9.20;;;;;;;;;;5081428;28;20078;-55
2020/12/08 10:43:09;;;;;;;10.25;8.55;;;;;;;;;;5086134;28;20023;-55
2020/12/08 10:45:34;;;;;;;9.55;7.93;;;;;;;;;;5085669;28;20035;-55
2020/12/08 10:48:00;;;;;;;10.15;8.50;;;;;;;;;;5091744;28;20162;-54
2020/12/08 10:50:25;;;;;;;8.75;6.70;;;;;;;;;;5089607;28;20016;-55
2020/12/08 10:52:50;;;;;;;8.23;7.43;;;;;;;;;;5082488;28;20020;-53
2020/12/08 10:55:17;;;;;;;9.40;8.40;;;;;;;;;;5083774;28;20019;-54
2020/12/08 10:57:43;;;;;;;9.10;8.20;;;;;;;;;;5078958;28;20028;-56
2020/12/08 11:00:08;;;;;;;9.70;8.90;;;;;;;;;;5080918;28;20067;-52
2020/12/08 11:02:33;;;;;;;8.63;7.72;;;;;;;;;;5076309;28;20020;-55
2020/12/08 11:05:03;;;;;;;9.30;8.30;;;;;;;;;;5084458;28;20016;-51
2020/12/08 11:07:28;;;;;;;10.43;8.52;;;;;;;;;;5090218;28;20047;-51
2020/12/08 11:09:54;;;;;;;8.57;7.68;;;;;;;;;;5076651;28;20498;-57
2020/12/08 11:12:19;;;;;;;8.27;7.55;;;;;;;;;;5077169;28;20016;-56
2020/12/08 11:14:45;;;;;;;8.52;7.70;;;;;;;;;;5086264;28;20022;-54
2020/12/08 11:17:10;;;;;;;10.30;9.40;;;;;;;;;;5084343;28;20031;-56
2020/12/08 11:19:36;;;;;;;9.02;8.23;;;;;;;;;;5062262;28;20035;-57
2020/12/08 11:22:04;;;;;;;9.23;8.43;;;;;;;;;;5090171;28;20036;-54
2020/12/08 11:24:30;;;;;;;9.40;8.50;;;;;;;;;;5091531;28;20039;-55
2020/12/08 11:26:55;;;;;;;9.98;8.73;;;;;;;;;;5090847;28;20024;-54
2020/12/08 11:29:20;;;;;;;9.38;8.30;;;;;;;;;;5087355;28;20055;-55
2020/12/08 11:31:48;;;;;;;8.65;7.75;;;;;;;;;;5093217;28;20050;-57
2020/12/08 11:34:14;;;;;;;9.73;8.82;;;;;;;;;;5086386;28;20367;-56
2020/12/08 11:36:39;;;;;;;9.13;7.82;;;;;;;;;;5087186;28;20024;-58
2020/12/08 11:39:04;;;;;;;9.48;8.57;;;;;;;;;;5082913;28;20375;-55
2020/12/08 11:41:30;;;;;;;9.60;8.65;;;;;;;;;;5091340;28;20514;-56
2020/12/08 11:43:55;;;;;;;9.98;8.95;;;;;;;;;;5092210;28;20024;-56
2020/12/08 11:46:20;;;;;;;11.50;9.48;;;;;;;;;;5092506;28;20153;-58
2020/12/08 11:48:45;;;;;;;9.98;8.98;;;;;;;;;;5089669;28;20032;-56
2020/12/08 11:51:11;;;;;;;10.10;8.65;;;;;;;;;;5086391;28;20031;-57
2020/12/08 11:53:36;;;;;;;9.70;8.80;;;;;;;;;;5085462;28;20102;-56
2020/12/08 11:56:02;;;;;;;11.23;8.70;;;;;;;;;;5080863;28;20016;-57
2020/12/08 11:58:27;;;;;;;10.30;9.32;;;;;;;;;;5078694;28;20503;-53
2020/12/08 12:00:52;;;;;;;9.25;8.43;;;;;;;;;;5087442;28;20501;-56
2020/12/08 12:03:18;;;;;;;10.02;8.98;;;;;;;;;;5091694;28;20020;-56
2020/12/08 12:05:43;;;;;;;10.52;9.57;;;;;;;;;;5086719;28;20028;-55
2020/12/08 12:08:08;;;;;;;11.55;9.00;;;;;;;;;;5089651;28;20016;-57
2020/12/08 12:10:34;;;;;;;11.32;10.32;;;;;;;;;;5090899;28;20016;-56
2020/12/08 12:12:59;;;;;;;9.77;8.88;;;;;;;;;;5087371;28;20028;-57
2020/12/08 12:15:24;;;;;;;10.80;9.40;;;;;;;;;;5091609;28;20055;-56
2020/12/08 12:17:50;;;;;;;10.40;9.38;;;;;;;;;;5090545;28;20043;-57
2020/12/08 12:20:15;;;;;;;11.10;9.50;;;;;;;;;;5083622;28;20025;-57
2020/12/08 12:22:40;;;;;;;11.98;10.70;;;;;;;;;;5088818;28;20130;-55
2020/12/08 12:25:06;;;;;;;11.05;9.80;;;;;;;;;;5088570;28;20032;-55
2020/12/08 12:27:31;;;;;;;11.88;9.98;;;;;;;;;;5084904;28;20020;-54
2020/12/08 12:29:57;;;;;;;11.35;10.15;;;;;;;;;;5086406;28;20071;-51
2020/12/08 12:32:22;;;;;;;12.60;10.75;;;;;;;;;;5090919;28;20537;-55
2020/12/08 12:34:48;;;;;;;12.15;9.75;;;;;;;;;;5092164;28;20375;-55
2020/12/08 12:37:14;;;;;;;12.02;9.80;;;;;;;;;;5090385;28;20459;-56
2020/12/08 12:39:39;;;;;;;11.20;9.65;;;;;;;;;;5088332;28;20031;-56
2020/12/08 12:42:04;;;;;;;12.60;9.98;;;;;;;;;;5090648;28;20038;-54
2020/12/08 12:44:30;;;;;;;11.23;9.05;;;;;;;;;;5090690;28;20035;-56
2020/12/08 12:46:55;;;;;;;13.57;9.80;;;;;;;;;;5091220;28;20132;-57
2020/12/08 12:49:22;;;;;;;13.15;10.88;;;;;;;;;;5086696;28;20024;-56
2020/12/08 12:51:47;;;;;;;9.82;8.65;;;;;;;;;;5091521;28;20386;-56
2020/12/08 12:54:14;;;;;;;12.85;10.00;;;;;;;;;;5088464;28;20024;-57
2020/12/08 12:56:39;;;;;;;10.40;9.25;;;;;;;;;;5091775;28;20463;-59
2020/12/08 12:59:05;;;;;;;11.68;9.80;;;;;;;;;;5088453;28;20099;-59
2020/12/08 13:01:30;;;;;;;13.32;9.63;;;;;;;;;;5088542;28;20024;-57
2020/12/08 13:03:55;;;;;;;14.32;10.38;;;;;;;;;;5091711;28;20051;-57
2020/12/08 13:06:21;;;;;;;11.15;9.48;;;;;;;;;;5089501;28;20022;-57
2020/12/08 13:08:46;;;;;;;12.20;9.93;;;;;;;;;;5075703;28;20067;-57
2020/12/08 13:11:13;;;;;;;12.48;10.60;;;;;;;;;;5090258;28;20020;-57
2020/12/08 13:13:39;;;;;;;13.18;9.80;;;;;;;;;;5087658;28;20454;-56
2020/12/08 13:16:05;;;;;;;13.75;9.57;;;;;;;;;;5090718;28;20104;-56
2020/12/08 13:18:30;;;;;;;13.40;10.40;;;;;;;;;;5082527;28;20030;-55
2020/12/08 13:20:57;;;;;;;16.80;11.48;;;;;;;;;;5084376;28;20126;-56
2020/12/08 13:23:22;;;;;;;15.35;11.52;;;;;;;;;;5090053;28;20039;-54
2020/12/08 13:25:49;;;;;;;14.52;10.88;;;;;;;;;;5086598;28;20066;-57
2020/12/08 13:28:14;;;;;;;14.30;11.73;;;;;;;;;;5081308;28;20384;-54
2020/12/08 13:30:39;;;;;;;14.38;10.57;;;;;;;;;;5094201;28;20054;-56
2020/12/08 13:33:05;;;;;;;14.45;11.52;;;;;;;;;;5093747;28;20017;-51
2020/12/08 13:35:30;;;;;;;17.20;10.95;;;;;;;;;;5088994;28;20019;-52
2020/12/08 13:37:55;;;;;;;14.95;11.18;;;;;;;;;;5083153;28;20028;-54
2020/12/08 13:40:21;;;;;;;15.70;10.77;;;;;;;;;;5088494;28;20019;-53
2020/12/08 13:42:47;;;;;;;16.83;10.75;;;;;;;;;;5087895;28;20020;-55
2020/12/08 13:45:12;;;;;;;15.35;11.40;;;;;;;;;;5083829;28;20114;-53
2020/12/08 13:47:38;;;;;;;16.58;12.45;;;;;;;;;;5088707;28;20064;-52
2020/12/08 13:50:05;;;;;;;15.23;12.07;;;;;;;;;;5087343;28;20058;-54
2020/12/08 13:52:30;;;;;;;15.52;12.18;;;;;;;;;;5087143;28;20023;-55
2020/12/08 13:54:56;;;;;;;14.60;11.18;;;;;;;;;;5086336;28;20020;-57
2020/12/08 13:57:22;;;;;;;17.88;13.57;;;;;;;;;;5087261;28;20016;-54
2020/12/08 13:59:47;;;;;;;14.48;11.38;;;;;;;;;;5088075;28;20020;-56
2020/12/08 14:02:16;;;;;;;14.60;11.75;;;;;;;;;;5087205;28;20036;-57
2020/12/08 14:04:41;;;;;;;15.60;11.95;;;;;;;;;;5093933;28;20016;-53
2020/12/08 14:07:06;;;;;;;15.52;11.55;;;;;;;;;;5089826;28;20573;-55
2020/12/08 14:09:32;;;;;;;13.98;11.30;;;;;;;;;;5087316;28;20024;-55
2020/12/08 14:11:57;;;;;;;16.13;11.52;;;;;;;;;;5094142;28;20385;-51
2020/12/08 14:14:22;;;;;;;16.55;11.88;;;;;;;;;;5093706;28;20061;-52
2020/12/08 14:16:48;;;;;;;18.70;12.63;;;;;;;;;;5088935;28;20389;-56